Easton, WA

9:14 PM PST on January 24, 2015 (GMT -0800)
Double K - Easton WA | Change Station
CLOSE
Current Station
Personal Weather Station
Location: Cle Elum, WA
Elevation: 2159 ft
Nearby Weather Stations

Elev 2159 ft 47.22 °N, 121.16 °W | Updated 7 minutes ago

Overcast
Overcast
40.5 °F
Feels Like 40 °F
N
0.0
Wind Variable Wind from West

Today
High -- | Low -- °F
--% Chance of Precip.
Yesterday
High -- | Low -- °F
Precip. -- in
7:39 AM 4:54 PM
Waxing Crescent, 28% visible
Pressure 30.23 in
Visibility 0.8 miles
Clouds
Windchill 40 °F
Dew Point 40 °F
Humidity 99%
Rainfall 0.27 in
Snow Depth Not available.
UV Not available.
Pollen .60 out of 12
Air Quality Not available.
Flu Activity Not available.
SPECI KELN 250500Z AUTO 13003KT 3/4SM BR VV002 07/05 A3023 RMK AO2 T00670050

More Conditions Fewer Conditions

Pressure 30.23 in
Visibility 0.8 miles
Clouds
Windchill 40 °F
Dew Point 40 °F
Humidity 99%
Rainfall 0.27 in
Snow Depth Not available.
UV Not available.
Pollen .60 out of 12
Air Quality Not available.
Flu Activity Not available.
SPECI KELN 250500Z AUTO 13003KT 3/4SM BR VV002 07/05 A3023 RMK AO2 T00670050

More Conditions Fewer Conditions

10-Day Weather Forecast

Almanac

Astronomy

Jan. 24, 2015 Rise Set
Actual Time
Civil Twilight
Nautical Twilight
Astronomical Twilight
Moon
Length of Visible Light
Length of Day
Tomorrow will be .
, % of the Moon is Illuminated

Today's Extremes

State Highs State Lows

Community

WunderPhotos

Upload Photos

1,789,843 photos uploaded!

WunderBlogs® & News

Nearby

Air Quality

  Air Quality AQ Index Pollutant
Not available.

Snow Depth

Station Depth Elevation

Earthquake Activity

City Distance Mag. Time & Date
Minimum magnitude displayed is 2.5.

Coastal Water Temperatures

Place Temperature

Nearby Weather Stations